sensor_id;sensor_type;location;lat;lon;timestamp;temperature;humidity
38902;DHT22;24661;53.566;9.910;2023-03-05T00:00:12;3.20;99.90
38902;DHT22;24661;53.566;9.910;2023-03-05T00:02:38;3.30;99.90
38902;DHT22;24661;53.566;9.910;2023-03-05T00:05:04;3.30;99.90
38902;DHT22;24661;53.566;9.910;2023-03-05T00:07:31;4.00;99.90
38902;DHT22;24661;53.566;9.910;2023-03-05T00:10:01;3.30;99.90
38902;DHT22;24661;53.566;9.910;2023-03-05T00:12:27;3.30;99.90
38902;DHT22;24661;53.566;9.910;2023-03-05T00:14:53;3.30;99.90
38902;DHT22;24661;53.566;9.910;2023-03-05T00:17:19;3.30;99.90
38902;DHT22;24661;53.566;9.910;2023-03-05T00:19:44;3.30;99.90
38902;DHT22;24661;53.566;9.910;2023-03-05T00:22:10;3.30;99.90
38902;DHT22;24661;53.566;9.910;2023-03-05T00:24:36;3.40;99.90
38902;DHT22;24661;53.566;9.910;2023-03-05T00:27:01;3.40;99.90
38902;DHT22;24661;53.566;9.910;2023-03-05T00:29:28;3.40;99.90
38902;DHT22;24661;53.566;9.910;2023-03-05T00:31:54;3.40;99.90
38902;DHT22;24661;53.566;9.910;2023-03-05T00:34:20;3.40;99.90
38902;DHT22;24661;53.566;9.910;2023-03-05T00:36:48;3.40;99.90
38902;DHT22;24661;53.566;9.910;2023-03-05T00:39:14;3.40;99.90
38902;DHT22;24661;53.566;9.910;2023-03-05T00:41:41;3.30;99.90
38902;DHT22;24661;53.566;9.910;2023-03-05T00:44:07;3.30;99.90
38902;DHT22;24661;53.566;9.910;2023-03-05T00:46:33;3.30;99.90
38902;DHT22;24661;53.566;9.910;2023-03-05T00:48:59;3.30;99.90
38902;DHT22;24661;53.566;9.910;2023-03-05T00:51:25;3.20;99.90
38902;DHT22;24661;53.566;9.910;2023-03-05T00:53:50;3.20;99.90
38902;DHT22;24661;53.566;9.910;2023-03-05T00:56:16;3.20;99.90
38902;DHT22;24661;53.566;9.910;2023-03-05T00:58:42;3.20;99.90
38902;DHT22;24661;53.566;9.910;2023-03-05T01:01:07;3.20;99.90
38902;DHT22;24661;53.566;9.910;2023-03-05T01:03:34;3.20;99.90
38902;DHT22;24661;53.566;9.910;2023-03-05T01:06:03;3.10;99.90
38902;DHT22;24661;53.566;9.910;2023-03-05T01:08:29;3.10;99.90
38902;DHT22;24661;53.566;9.910;2023-03-05T01:10:55;3.10;99.90
38902;DHT22;24661;53.566;9.910;2023-03-05T01:13:21;3.10;99.90
38902;DHT22;24661;53.566;9.910;2023-03-05T01:15:47;3.00;99.90
38902;DHT22;24661;53.566;9.910;2023-03-05T01:18:15;3.00;99.90
38902;DHT22;24661;53.566;9.910;2023-03-05T01:20:41;3.00;99.90
38902;DHT22;24661;53.566;9.910;2023-03-05T01:23:07;3.00;99.90
38902;DHT22;24661;53.566;9.910;2023-03-05T01:25:33;3.00;99.90
38902;DHT22;24661;53.566;9.910;2023-03-05T01:27:58;3.00;99.90
38902;DHT22;24661;53.566;9.910;2023-03-05T01:30:24;3.00;99.90
38902;DHT22;24661;53.566;9.910;2023-03-05T01:32:50;3.00;99.90
38902;DHT22;24661;53.566;9.910;2023-03-05T01:35:18;2.90;99.90
38902;DHT22;24661;53.566;9.910;2023-03-05T01:37:44;2.90;99.90
38902;DHT22;24661;53.566;9.910;2023-03-05T01:40:13;2.90;99.90
38902;DHT22;24661;53.566;9.910;2023-03-05T01:42:39;2.80;99.90
38902;DHT22;24661;53.566;9.910;2023-03-05T01:45:13;2.80;99.90
38902;DHT22;24661;53.566;9.910;2023-03-05T01:47:39;2.80;99.90
38902;DHT22;24661;53.566;9.910;2023-03-05T01:50:08;2.70;99.90
38902;DHT22;24661;53.566;9.910;2023-03-05T01:52:36;2.70;99.90
38902;DHT22;24661;53.566;9.910;2023-03-05T01:55:09;2.60;99.90
38902;DHT22;24661;53.566;9.910;2023-03-05T01:57:43;2.60;99.90
38902;DHT22;24661;53.566;9.910;2023-03-05T02:00:18;2.60;99.90
38902;DHT22;24661;53.566;9.910;2023-03-05T02:02:46;2.60;99.90
38902;DHT22;24661;53.566;9.910;2023-03-05T02:05:17;2.60;99.90
38902;DHT22;24661;53.566;9.910;2023-03-05T02:07:43;2.50;99.90
38902;DHT22;24661;53.566;9.910;2023-03-05T02:10:20;2.40;99.90
38902;DHT22;24661;53.566;9.910;2023-03-05T02:12:48;2.30;99.90
38902;DHT22;24661;53.566;9.910;2023-03-05T02:15:15;2.30;99.90
38902;DHT22;24661;53.566;9.910;2023-03-05T02:17:40;2.20;99.90
38902;DHT22;24661;53.566;9.910;2023-03-05T02:20:13;2.10;99.90
38902;DHT22;24661;53.566;9.910;2023-03-05T02:22:38;2.00;99.90
38902;DHT22;24661;53.566;9.910;2023-03-05T02:25:21;2.00;99.90
38902;DHT22;24661;53.566;9.910;2023-03-05T02:30:18;2.00;99.90
38902;DHT22;24661;53.566;9.910;2023-03-05T02:32:44;1.90;99.90
38902;DHT22;24661;53.566;9.910;2023-03-05T02:35:10;1.90;99.90
38902;DHT22;24661;53.566;9.910;2023-03-05T02:37:35;2.00;99.90
38902;DHT22;24661;53.566;9.910;2023-03-05T02:40:01;1.90;99.90
38902;DHT22;24661;53.566;9.910;2023-03-05T02:42:27;1.90;99.90
38902;DHT22;24661;53.566;9.910;2023-03-05T02:44:52;2.00;99.90
38902;DHT22;24661;53.566;9.910;2023-03-05T02:47:18;2.00;99.90
38902;DHT22;24661;53.566;9.910;2023-03-05T02:49:44;2.00;99.90
38902;DHT22;24661;53.566;9.910;2023-03-05T02:52:09;2.00;99.90
38902;DHT22;24661;53.566;9.910;2023-03-05T02:54:35;2.10;99.90
38902;DHT22;24661;53.566;9.910;2023-03-05T02:57:00;2.10;99.90
38902;DHT22;24661;53.566;9.910;2023-03-05T02:59:26;2.10;99.90
38902;DHT22;24661;53.566;9.910;2023-03-05T03:01:52;2.00;99.90
38902;DHT22;24661;53.566;9.910;2023-03-05T03:04:17;2.00;99.90
38902;DHT22;24661;53.566;9.910;2023-03-05T03:06:43;2.00;99.90
38902;DHT22;24661;53.566;9.910;2023-03-05T03:09:08;1.90;99.90
38902;DHT22;24661;53.566;9.910;2023-03-05T03:11:34;1.80;99.90
38902;DHT22;24661;53.566;9.910;2023-03-05T03:13:59;1.80;99.90
38902;DHT22;24661;53.566;9.910;2023-03-05T03:16:25;1.80;99.90
38902;DHT22;24661;53.566;9.910;2023-03-05T03:18:51;1.70;99.90
38902;DHT22;24661;53.566;9.910;2023-03-05T03:21:18;1.70;99.90
38902;DHT22;24661;53.566;9.910;2023-03-05T03:23:44;1.70;99.90
38902;DHT22;24661;53.566;9.910;2023-03-05T03:26:10;1.60;99.90
38902;DHT22;24661;53.566;9.910;2023-03-05T03:28:36;1.60;99.90
38902;DHT22;24661;53.566;9.910;2023-03-05T03:31:01;1.70;99.90
38902;DHT22;24661;53.566;9.910;2023-03-05T03:33:27;1.60;99.90
38902;DHT22;24661;53.566;9.910;2023-03-05T03:35:52;1.70;99.90
38902;DHT22;24661;53.566;9.910;2023-03-05T03:38:18;1.60;99.90
38902;DHT22;24661;53.566;9.910;2023-03-05T03:40:44;1.60;99.90
38902;DHT22;24661;53.566;9.910;2023-03-05T03:43:09;1.60;99.90
38902;DHT22;24661;53.566;9.910;2023-03-05T03:45:39;1.60;99.90
38902;DHT22;24661;53.566;9.910;2023-03-05T03:48:05;1.50;99.90
38902;DHT22;24661;53.566;9.910;2023-03-05T03:50:31;1.50;99.90
38902;DHT22;24661;53.566;9.910;2023-03-05T03:52:56;1.50;99.90
38902;DHT22;24661;53.566;9.910;2023-03-05T03:55:22;1.50;99.90
38902;DHT22;24661;53.566;9.910;2023-03-05T03:57:48;1.50;99.90
38902;DHT22;24661;53.566;9.910;2023-03-05T04:00:13;1.50;99.90
38902;DHT22;24661;53.566;9.910;2023-03-05T04:02:39;1.50;99.90
38902;DHT22;24661;53.566;9.910;2023-03-05T04:05:05;1.50;99.90
38902;DHT22;24661;53.566;9.910;2023-03-05T04:07:31;1.50;99.90
38902;DHT22;24661;53.566;9.910;2023-03-05T04:09:57;1.60;99.90
38902;DHT22;24661;53.566;9.910;2023-03-05T04:12:22;1.60;99.90
38902;DHT22;24661;53.566;9.910;2023-03-05T04:14:48;1.60;99.90
38902;DHT22;24661;53.566;9.910;2023-03-05T04:17:15;1.70;99.90
38902;DHT22;24661;53.566;9.910;2023-03-05T04:19:41;1.70;99.90
38902;DHT22;24661;53.566;9.910;2023-03-05T04:22:13;1.70;99.90
38902;DHT22;24661;53.566;9.910;2023-03-05T04:24:39;1.70;99.90
38902;DHT22;24661;53.566;9.910;2023-03-05T04:27:04;1.80;99.90
38902;DHT22;24661;53.566;9.910;2023-03-05T04:29:30;1.80;99.90
38902;DHT22;24661;53.566;9.910;2023-03-05T04:31:56;1.90;99.90
38902;DHT22;24661;53.566;9.910;2023-03-05T04:34:21;1.90;99.90
38902;DHT22;24661;53.566;9.910;2023-03-05T04:36:47;1.90;99.90
38902;DHT22;24661;53.566;9.910;2023-03-05T04:39:13;1.90;99.90
38902;DHT22;24661;53.566;9.910;2023-03-05T04:41:38;1.90;99.90
38902;DHT22;24661;53.566;9.910;2023-03-05T04:44:04;3.30;99.90
38902;DHT22;24661;53.566;9.910;2023-03-05T04:46:29;2.00;99.90
38902;DHT22;24661;53.566;9.910;2023-03-05T04:48:56;2.00;99.90
38902;DHT22;24661;53.566;9.910;2023-03-05T04:51:22;2.00;99.90
38902;DHT22;24661;53.566;9.910;2023-03-05T04:53:47;2.00;99.90
38902;DHT22;24661;53.566;9.910;2023-03-05T04:56:13;2.00;99.90
38902;DHT22;24661;53.566;9.910;2023-03-05T04:58:39;1.90;99.90
38902;DHT22;24661;53.566;9.910;2023-03-05T05:01:05;2.00;99.90
38902;DHT22;24661;53.566;9.910;2023-03-05T05:03:31;2.00;99.90
38902;DHT22;24661;53.566;9.910;2023-03-05T05:05:58;2.00;99.90
38902;DHT22;24661;53.566;9.910;2023-03-05T05:08:25;2.00;99.90
38902;DHT22;24661;53.566;9.910;2023-03-05T05:11:12;2.00;99.90
38902;DHT22;24661;53.566;9.910;2023-03-05T05:13:38;2.00;99.90
38902;DHT22;24661;53.566;9.910;2023-03-05T05:16:07;2.10;99.90
38902;DHT22;24661;53.566;9.910;2023-03-05T05:18:34;2.00;99.90
38902;DHT22;24661;53.566;9.910;2023-03-05T05:21:00;2.00;99.90
38902;DHT22;24661;53.566;9.910;2023-03-05T05:23:26;1.90;99.90
38902;DHT22;24661;53.566;9.910;2023-03-05T05:25:56;1.90;99.90
38902;DHT22;24661;53.566;9.910;2023-03-05T05:28:21;1.90;99.90
38902;DHT22;24661;53.566;9.910;2023-03-05T05:30:47;1.90;99.90
38902;DHT22;24661;53.566;9.910;2023-03-05T05:33:13;1.80;99.90
38902;DHT22;24661;53.566;9.910;2023-03-05T05:35:39;1.80;99.90
38902;DHT22;24661;53.566;9.910;2023-03-05T05:38:04;1.80;99.90
38902;DHT22;24661;53.566;9.910;2023-03-05T05:40:30;1.80;99.90
38902;DHT22;24661;53.566;9.910;2023-03-05T05:42:55;1.90;99.90
38902;DHT22;24661;53.566;9.910;2023-03-05T05:45:21;1.90;99.90
38902;DHT22;24661;53.566;9.910;2023-03-05T05:47:47;1.90;99.90
38902;DHT22;24661;53.566;9.910;2023-03-05T05:50:12;1.90;99.90
38902;DHT22;24661;53.566;9.910;2023-03-05T05:52:39;1.90;99.90
38902;DHT22;24661;53.566;9.910;2023-03-05T05:55:05;1.90;99.90
38902;DHT22;24661;53.566;9.910;2023-03-05T05:57:31;1.90;99.90
38902;DHT22;24661;53.566;9.910;2023-03-05T05:59:57;1.90;99.90
38902;DHT22;24661;53.566;9.910;2023-03-05T06:02:23;1.90;99.90
38902;DHT22;24661;53.566;9.910;2023-03-05T06:04:49;1.90;99.90
38902;DHT22;24661;53.566;9.910;2023-03-05T06:07:14;1.90;99.90
38902;DHT22;24661;53.566;9.910;2023-03-05T06:09:40;1.90;99.90
38902;DHT22;24661;53.566;9.910;2023-03-05T06:12:06;2.00;99.90
38902;DHT22;24661;53.566;9.910;2023-03-05T06:14:31;2.00;99.90
38902;DHT22;24661;53.566;9.910;2023-03-05T06:16:57;2.00;99.90
38902;DHT22;24661;53.566;9.910;2023-03-05T06:19:23;2.00;99.90
38902;DHT22;24661;53.566;9.910;2023-03-05T06:21:48;2.00;99.90
38902;DHT22;24661;53.566;9.910;2023-03-05T06:24:14;2.00;99.90
38902;DHT22;24661;53.566;9.910;2023-03-05T06:26:40;2.00;99.90
38902;DHT22;24661;53.566;9.910;2023-03-05T06:29:05;2.10;99.90
38902;DHT22;24661;53.566;9.910;2023-03-05T06:31:31;2.10;99.90
38902;DHT22;24661;53.566;9.910;2023-03-05T06:33:59;2.10;99.90
38902;DHT22;24661;53.566;9.910;2023-03-05T06:36:28;2.10;99.90
38902;DHT22;24661;53.566;9.910;2023-03-05T06:38:54;2.10;99.90
38902;DHT22;24661;53.566;9.910;2023-03-05T06:41:24;2.70;99.90
38902;DHT22;24661;53.566;9.910;2023-03-05T06:43:51;2.10;99.90
38902;DHT22;24661;53.566;9.910;2023-03-05T06:46:20;2.10;99.90
38902;DHT22;24661;53.566;9.910;2023-03-05T06:48:46;2.10;99.90
38902;DHT22;24661;53.566;9.910;2023-03-05T06:51:17;2.10;99.90
38902;DHT22;24661;53.566;9.910;2023-03-05T06:53:44;2.10;99.90
38902;DHT22;24661;53.566;9.910;2023-03-05T06:56:11;2.20;99.90
38902;DHT22;24661;53.566;9.910;2023-03-05T06:58:42;2.20;99.90
38902;DHT22;24661;53.566;9.910;2023-03-05T07:01:08;2.20;99.90
38902;DHT22;24661;53.566;9.910;2023-03-05T07:03:35;2.20;99.90
38902;DHT22;24661;53.566;9.910;2023-03-05T07:06:05;2.20;99.90
38902;DHT22;24661;53.566;9.910;2023-03-05T07:08:32;2.20;99.90
38902;DHT22;24661;53.566;9.910;2023-03-05T07:10:58;2.30;99.90
38902;DHT22;24661;53.566;9.910;2023-03-05T07:13:24;2.30;99.90
38902;DHT22;24661;53.566;9.910;2023-03-05T07:15:50;2.30;99.90
38902;DHT22;24661;53.566;9.910;2023-03-05T07:18:16;2.30;99.90
38902;DHT22;24661;53.566;9.910;2023-03-05T07:20:41;2.30;99.90
38902;DHT22;24661;53.566;9.910;2023-03-05T07:23:07;2.30;99.90
38902;DHT22;24661;53.566;9.910;2023-03-05T07:25:35;2.30;99.90
38902;DHT22;24661;53.566;9.910;2023-03-05T07:28:01;2.30;99.90
38902;DHT22;24661;53.566;9.910;2023-03-05T07:30:27;2.30;99.90
38902;DHT22;24661;53.566;9.910;2023-03-05T07:32:53;2.30;99.90
38902;DHT22;24661;53.566;9.910;2023-03-05T07:35:18;2.40;99.90
38902;DHT22;24661;53.566;9.910;2023-03-05T07:37:44;2.40;99.90
38902;DHT22;24661;53.566;9.910;2023-03-05T07:40:11;2.40;99.90
38902;DHT22;24661;53.566;9.910;2023-03-05T07:42:36;2.40;99.90
38902;DHT22;24661;53.566;9.910;2023-03-05T07:45:02;2.50;99.90
38902;DHT22;24661;53.566;9.910;2023-03-05T07:47:28;2.50;99.90
38902;DHT22;24661;53.566;9.910;2023-03-05T07:49:54;2.40;99.90
38902;DHT22;24661;53.566;9.910;2023-03-05T07:52:20;2.50;99.90
38902;DHT22;24661;53.566;9.910;2023-03-05T07:54:46;2.50;99.90
38902;DHT22;24661;53.566;9.910;2023-03-05T07:57:14;2.50;99.90
38902;DHT22;24661;53.566;9.910;2023-03-05T07:59:39;2.50;99.90
38902;DHT22;24661;53.566;9.910;2023-03-05T08:02:06;2.60;99.90
38902;DHT22;24661;53.566;9.910;2023-03-05T08:04:31;2.70;99.90
38902;DHT22;24661;53.566;9.910;2023-03-05T08:06:58;2.90;99.90
38902;DHT22;24661;53.566;9.910;2023-03-05T08:09:24;3.10;99.90
38902;DHT22;24661;53.566;9.910;2023-03-05T08:11:49;3.10;99.90
38902;DHT22;24661;53.566;9.910;2023-03-05T08:14:15;3.00;99.90
38902;DHT22;24661;53.566;9.910;2023-03-05T08:16:41;3.20;99.90
38902;DHT22;24661;53.566;9.910;2023-03-05T08:19:06;3.30;99.90
38902;DHT22;24661;53.566;9.910;2023-03-05T08:21:34;3.40;99.90
38902;DHT22;24661;53.566;9.910;2023-03-05T08:24:07;3.30;99.90
38902;DHT22;24661;53.566;9.910;2023-03-05T08:26:35;3.20;99.90
38902;DHT22;24661;53.566;9.910;2023-03-05T08:29:03;3.20;99.90
38902;DHT22;24661;53.566;9.910;2023-03-05T08:31:29;3.20;99.90
38902;DHT22;24661;53.566;9.910;2023-03-05T08:33:56;4.20;99.90
38902;DHT22;24661;53.566;9.910;2023-03-05T08:36:22;3.10;99.90
38902;DHT22;24661;53.566;9.910;2023-03-05T08:38:48;3.20;99.90
38902;DHT22;24661;53.566;9.910;2023-03-05T08:41:16;3.20;99.90
38902;DHT22;24661;53.566;9.910;2023-03-05T08:43:42;3.20;99.90
38902;DHT22;24661;53.566;9.910;2023-03-05T08:46:09;3.20;99.90
38902;DHT22;24661;53.566;9.910;2023-03-05T08:48:34;3.30;99.90
38902;DHT22;24661;53.566;9.910;2023-03-05T08:51:07;2.70;99.90
38902;DHT22;24661;53.566;9.910;2023-03-05T08:53:37;3.40;99.90
38902;DHT22;24661;53.566;9.910;2023-03-05T08:56:04;3.40;99.90
38902;DHT22;24661;53.566;9.910;2023-03-05T08:58:30;3.50;99.90
38902;DHT22;24661;53.566;9.910;2023-03-05T09:00:55;3.60;99.90
38902;DHT22;24661;53.566;9.910;2023-03-05T09:03:21;3.80;99.90
38902;DHT22;24661;53.566;9.910;2023-03-05T09:05:47;3.70;99.90
38902;DHT22;24661;53.566;9.910;2023-03-05T09:08:13;3.80;99.90
38902;DHT22;24661;53.566;9.910;2023-03-05T09:10:41;3.90;99.90
38902;DHT22;24661;53.566;9.910;2023-03-05T09:13:07;3.80;99.90
38902;DHT22;24661;53.566;9.910;2023-03-05T09:15:34;3.80;99.90
38902;DHT22;24661;53.566;9.910;2023-03-05T09:17:59;3.90;99.90
38902;DHT22;24661;53.566;9.910;2023-03-05T09:20:25;3.90;99.90
38902;DHT22;24661;53.566;9.910;2023-03-05T09:22:50;3.90;99.90
38902;DHT22;24661;53.566;9.910;2023-03-05T09:25:16;4.10;99.90
38902;DHT22;24661;53.566;9.910;2023-03-05T09:27:42;4.10;99.90
38902;DHT22;24661;53.566;9.910;2023-03-05T09:30:10;4.20;99.90
38902;DHT22;24661;53.566;9.910;2023-03-05T09:32:36;4.20;99.90
38902;DHT22;24661;53.566;9.910;2023-03-05T09:35:01;4.20;99.90
38902;DHT22;24661;53.566;9.910;2023-03-05T09:37:27;4.40;99.90
38902;DHT22;24661;53.566;9.910;2023-03-05T09:39:54;4.40;99.90
38902;DHT22;24661;53.566;9.910;2023-03-05T09:42:44;4.50;99.90
38902;DHT22;24661;53.566;9.910;2023-03-05T09:45:36;4.60;99.90
38902;DHT22;24661;53.566;9.910;2023-03-05T09:48:21;4.60;99.90
38902;DHT22;24661;53.566;9.910;2023-03-05T09:51:01;4.60;99.90
38902;DHT22;24661;53.566;9.910;2023-03-05T09:53:37;4.50;99.90
38902;DHT22;24661;53.566;9.910;2023-03-05T09:56:14;4.30;99.90
38902;DHT22;24661;53.566;9.910;2023-03-05T09:58:42;4.20;99.90
38902;DHT22;24661;53.566;9.910;2023-03-05T10:01:18;4.20;99.90
38902;DHT22;24661;53.566;9.910;2023-03-05T10:03:58;4.10;99.90
38902;DHT22;24661;53.566;9.910;2023-03-05T10:06:39;4.10;99.90
38902;DHT22;24661;53.566;9.910;2023-03-05T10:22:53;3.50;99.90
38902;DHT22;24661;53.566;9.910;2023-03-05T10:28:02;3.10;99.90
38902;DHT22;24661;53.566;9.910;2023-03-05T10:31:03;3.00;99.90
38902;DHT22;24661;53.566;9.910;2023-03-05T10:34:35;2.80;99.90
38902;DHT22;24661;53.566;9.910;2023-03-05T10:36:54;2.80;99.90
38902;DHT22;24661;53.566;9.910;2023-03-05T10:39:48;2.90;99.90
38902;DHT22;24661;53.566;9.910;2023-03-05T10:44:57;3.20;99.90
38902;DHT22;24661;53.566;9.910;2023-03-05T10:47:31;3.50;99.90
38902;DHT22;24661;53.566;9.910;2023-03-05T10:50:00;3.60;99.90
38902;DHT22;24661;53.566;9.910;2023-03-05T10:52:36;3.60;99.90
38902;DHT22;24661;53.566;9.910;2023-03-05T10:55:14;3.70;99.90
38902;DHT22;24661;53.566;9.910;2023-03-05T10:57:40;3.70;99.90
38902;DHT22;24661;53.566;9.910;2023-03-05T11:00:21;3.70;99.90
38902;DHT22;24661;53.566;9.910;2023-03-05T11:08:34;4.30;99.90
38902;DHT22;24661;53.566;9.910;2023-03-05T11:14:04;4.60;99.90
38902;DHT22;24661;53.566;9.910;2023-03-05T11:16:33;4.60;99.90
38902;DHT22;24661;53.566;9.910;2023-03-05T11:21:43;4.40;99.90
38902;DHT22;24661;53.566;9.910;2023-03-05T11:24:12;4.50;99.90
38902;DHT22;24661;53.566;9.910;2023-03-05T11:26:52;4.50;99.90
38902;DHT22;24661;53.566;9.910;2023-03-05T11:29:22;4.60;99.90
38902;DHT22;24661;53.566;9.910;2023-03-05T11:31:49;4.60;99.90
38902;DHT22;24661;53.566;9.910;2023-03-05T11:36:59;4.80;99.90
38902;DHT22;24661;53.566;9.910;2023-03-05T11:39:29;4.80;99.90
38902;DHT22;24661;53.566;9.910;2023-03-05T11:44:28;4.80;99.90
38902;DHT22;24661;53.566;9.910;2023-03-05T11:47:01;4.90;99.90
38902;DHT22;24661;53.566;9.910;2023-03-05T11:49:30;5.10;99.90
38902;DHT22;24661;53.566;9.910;2023-03-05T11:52:07;5.30;99.90
38902;DHT22;24661;53.566;9.910;2023-03-05T11:54:43;5.40;99.90
38902;DHT22;24661;53.566;9.910;2023-03-05T11:57:13;5.40;99.90
38902;DHT22;24661;53.566;9.910;2023-03-05T11:59:41;5.40;99.90
38902;DHT22;24661;53.566;9.910;2023-03-05T12:02:19;5.30;99.90
38902;DHT22;24661;53.566;9.910;2023-03-05T12:04:46;5.20;99.90
38902;DHT22;24661;53.566;9.910;2023-03-05T12:07:16;5.20;99.90
38902;DHT22;24661;53.566;9.910;2023-03-05T12:09:48;5.20;99.90
38902;DHT22;24661;53.566;9.910;2023-03-05T12:12:25;5.30;99.90
38902;DHT22;24661;53.566;9.910;2023-03-05T12:15:00;5.40;99.90
38902;DHT22;24661;53.566;9.910;2023-03-05T12:17:31;6.50;99.90
38902;DHT22;24661;53.566;9.910;2023-03-05T12:20:05;5.90;99.90
38902;DHT22;24661;53.566;9.910;2023-03-05T12:22:39;5.90;99.90
38902;DHT22;24661;53.566;9.910;2023-03-05T12:27:55;5.90;99.90
38902;DHT22;24661;53.566;9.910;2023-03-05T12:33:03;5.80;99.90
38902;DHT22;24661;53.566;9.910;2023-03-05T12:35:35;5.80;99.90
38902;DHT22;24661;53.566;9.910;2023-03-05T12:38:04;6.00;99.90
38902;DHT22;24661;53.566;9.910;2023-03-05T12:40:31;5.90;99.90
38902;DHT22;24661;53.566;9.910;2023-03-05T12:46:22;5.80;99.90
38902;DHT22;24661;53.566;9.910;2023-03-05T12:48:48;5.70;99.90
38902;DHT22;24661;53.566;9.910;2023-03-05T12:51:33;5.70;99.90
38902;DHT22;24661;53.566;9.910;2023-03-05T12:54:33;5.80;99.90
38902;DHT22;24661;53.566;9.910;2023-03-05T12:57:03;5.90;99.90
38902;DHT22;24661;53.566;9.910;2023-03-05T12:59:44;6.10;99.90
38902;DHT22;24661;53.566;9.910;2023-03-05T13:02:21;6.30;99.90
38902;DHT22;24661;53.566;9.910;2023-03-05T13:04:48;6.40;99.90
38902;DHT22;24661;53.566;9.910;2023-03-05T13:07:17;6.40;99.90
38902;DHT22;24661;53.566;9.910;2023-03-05T13:09:54;6.20;99.90
38902;DHT22;24661;53.566;9.910;2023-03-05T13:12:25;6.20;99.90
38902;DHT22;24661;53.566;9.910;2023-03-05T13:15:04;4.60;99.90
38902;DHT22;24661;53.566;9.910;2023-03-05T13:17:34;6.10;99.90
38902;DHT22;24661;53.566;9.910;2023-03-05T13:20:03;5.90;99.90
38902;DHT22;24661;53.566;9.910;2023-03-05T13:22:31;5.70;99.90
38902;DHT22;24661;53.566;9.910;2023-03-05T13:25:16;5.60;99.90
38902;DHT22;24661;53.566;9.910;2023-03-05T13:27:50;5.70;99.90
38902;DHT22;24661;53.566;9.910;2023-03-05T13:30:26;5.60;99.90
38902;DHT22;24661;53.566;9.910;2023-03-05T13:33:16;5.80;99.90
38902;DHT22;24661;53.566;9.910;2023-03-05T13:35:44;5.60;99.90
38902;DHT22;24661;53.566;9.910;2023-03-05T13:38:24;5.60;99.90
38902;DHT22;24661;53.566;9.910;2023-03-05T13:41:32;5.60;99.90
38902;DHT22;24661;53.566;9.910;2023-03-05T13:44:01;5.70;99.90
38902;DHT22;24661;53.566;9.910;2023-03-05T13:46:31;5.80;99.90
38902;DHT22;24661;53.566;9.910;2023-03-05T13:51:52;5.60;99.90
38902;DHT22;24661;53.566;9.910;2023-03-05T13:54:18;5.60;99.90
38902;DHT22;24661;53.566;9.910;2023-03-05T13:57:25;5.50;99.90
38902;DHT22;24661;53.566;9.910;2023-03-05T13:59:56;5.50;99.90
38902;DHT22;24661;53.566;9.910;2023-03-05T14:02:22;5.50;99.90
38902;DHT22;24661;53.566;9.910;2023-03-05T14:04:49;5.20;99.90
38902;DHT22;24661;53.566;9.910;2023-03-05T14:07:27;5.20;99.90
38902;DHT22;24661;53.566;9.910;2023-03-05T14:09:54;5.20;99.90
38902;DHT22;24661;53.566;9.910;2023-03-05T14:12:38;5.20;99.90
38902;DHT22;24661;53.566;9.910;2023-03-05T14:15:23;5.20;99.90
38902;DHT22;24661;53.566;9.910;2023-03-05T14:17:50;5.20;99.90
38902;DHT22;24661;53.566;9.910;2023-03-05T14:20:22;5.20;99.90
38902;DHT22;24661;53.566;9.910;2023-03-05T14:23:00;5.20;99.90
38902;DHT22;24661;53.566;9.910;2023-03-05T14:27:58;5.10;99.90
38902;DHT22;24661;53.566;9.910;2023-03-05T14:30:24;5.10;99.90
38902;DHT22;24661;53.566;9.910;2023-03-05T14:32:53;5.10;99.90
38902;DHT22;24661;53.566;9.910;2023-03-05T14:35:27;5.20;99.90
38902;DHT22;24661;53.566;9.910;2023-03-05T14:37:55;5.20;99.90
38902;DHT22;24661;53.566;9.910;2023-03-05T14:40:27;5.30;99.90
38902;DHT22;24661;53.566;9.910;2023-03-05T14:45:32;5.30;99.90
38902;DHT22;24661;53.566;9.910;2023-03-05T14:48:00;5.50;99.90
38902;DHT22;24661;53.566;9.910;2023-03-05T14:50:31;5.40;99.90
38902;DHT22;24661;53.566;9.910;2023-03-05T14:53:05;5.30;99.90
38902;DHT22;24661;53.566;9.910;2023-03-05T14:55:32;5.30;99.90
38902;DHT22;24661;53.566;9.910;2023-03-05T14:58:09;5.30;99.90
38902;DHT22;24661;53.566;9.910;2023-03-05T15:00:37;5.10;99.90
38902;DHT22;24661;53.566;9.910;2023-03-05T15:03:03;5.20;99.90
38902;DHT22;24661;53.566;9.910;2023-03-05T15:05:30;5.10;99.90
38902;DHT22;24661;53.566;9.910;2023-03-05T15:08:01;5.10;99.90
38902;DHT22;24661;53.566;9.910;2023-03-05T15:10:43;4.90;99.90
38902;DHT22;24661;53.566;9.910;2023-03-05T15:13:18;4.90;99.90
38902;DHT22;24661;53.566;9.910;2023-03-05T15:15:52;4.80;99.90
38902;DHT22;24661;53.566;9.910;2023-03-05T15:18:22;4.80;99.90
38902;DHT22;24661;53.566;9.910;2023-03-05T15:20:49;5.80;99.90
38902;DHT22;24661;53.566;9.910;2023-03-05T15:23:18;4.60;99.90
38902;DHT22;24661;53.566;9.910;2023-03-05T15:25:45;4.60;99.90
38902;DHT22;24661;53.566;9.910;2023-03-05T15:28:16;4.60;99.90
38902;DHT22;24661;53.566;9.910;2023-03-05T15:30:45;4.60;99.90
38902;DHT22;24661;53.566;9.910;2023-03-05T15:33:19;4.60;99.90
38902;DHT22;24661;53.566;9.910;2023-03-05T15:38:18;4.50;99.90
38902;DHT22;24661;53.566;9.910;2023-03-05T15:40:45;4.40;99.90
38902;DHT22;24661;53.566;9.910;2023-03-05T15:43:14;4.30;99.90
38902;DHT22;24661;53.566;9.910;2023-03-05T15:45:40;4.30;99.90
38902;DHT22;24661;53.566;9.910;2023-03-05T15:48:06;4.20;99.90
38902;DHT22;24661;53.566;9.910;2023-03-05T15:50:32;4.30;99.90
38902;DHT22;24661;53.566;9.910;2023-03-05T15:52:58;4.20;99.90
38902;DHT22;24661;53.566;9.910;2023-03-05T15:55:24;4.20;99.90
38902;DHT22;24661;53.566;9.910;2023-03-05T15:57:51;4.10;99.90
38902;DHT22;24661;53.566;9.910;2023-03-05T16:00:24;4.00;99.90
38902;DHT22;24661;53.566;9.910;2023-03-05T16:02:53;4.00;99.90
38902;DHT22;24661;53.566;9.910;2023-03-05T16:05:19;3.90;99.90
38902;DHT22;24661;53.566;9.910;2023-03-05T16:07:46;3.90;99.90
38902;DHT22;24661;53.566;9.910;2023-03-05T16:10:16;3.90;99.90
38902;DHT22;24661;53.566;9.910;2023-03-05T16:12:46;3.80;99.90
38902;DHT22;24661;53.566;9.910;2023-03-05T16:15:16;3.80;99.90
38902;DHT22;24661;53.566;9.910;2023-03-05T16:17:43;3.60;99.90
38902;DHT22;24661;53.566;9.910;2023-03-05T16:20:12;3.60;99.90
38902;DHT22;24661;53.566;9.910;2023-03-05T16:22:38;3.60;99.90
38902;DHT22;24661;53.566;9.910;2023-03-05T16:25:04;3.60;99.90
38902;DHT22;24661;53.566;9.910;2023-03-05T16:27:33;3.60;99.90
38902;DHT22;24661;53.566;9.910;2023-03-05T16:29:59;3.50;99.90
38902;DHT22;24661;53.566;9.910;2023-03-05T16:32:25;3.40;99.90
38902;DHT22;24661;53.566;9.910;2023-03-05T16:34:51;3.40;99.90
38902;DHT22;24661;53.566;9.910;2023-03-05T16:37:22;3.40;99.90
38902;DHT22;24661;53.566;9.910;2023-03-05T16:39:48;3.40;99.90
38902;DHT22;24661;53.566;9.910;2023-03-05T16:42:14;3.30;99.90
38902;DHT22;24661;53.566;9.910;2023-03-05T16:44:41;3.20;99.90
38902;DHT22;24661;53.566;9.910;2023-03-05T16:47:08;3.20;99.90
38902;DHT22;24661;53.566;9.910;2023-03-05T16:49:36;3.20;99.90
38902;DHT22;24661;53.566;9.910;2023-03-05T16:52:02;3.10;99.90